sensor_id;sensor_type;location;lat;lon;timestamp;P1;durP1;ratioP1;P2;durP2;ratioP2
45650;SDS011;31365;48.858;8.530;2022-07-29T00:01:40;3.67;;;2.30;;
45650;SDS011;31365;48.858;8.530;2022-07-29T00:04:11;3.47;;;3.05;;
45650;SDS011;31365;48.858;8.530;2022-07-29T00:06:40;3.88;;;2.55;;
45650;SDS011;31365;48.858;8.530;2022-07-29T00:09:09;3.05;;;2.55;;
45650;SDS011;31365;48.858;8.530;2022-07-29T00:11:37;4.60;;;2.38;;
45650;SDS011;31365;48.858;8.530;2022-07-29T00:14:06;2.60;;;2.40;;
45650;SDS011;31365;48.858;8.530;2022-07-29T00:16:34;2.95;;;2.58;;
45650;SDS011;31365;48.858;8.530;2022-07-29T00:19:03;2.60;;;2.40;;
45650;SDS011;31365;48.858;8.530;2022-07-29T00:21:34;2.97;;;2.65;;
45650;SDS011;31365;48.858;8.530;2022-07-29T00:24:03;2.88;;;2.67;;
45650;SDS011;31365;48.858;8.530;2022-07-29T00:26:31;3.20;;;2.55;;
45650;SDS011;31365;48.858;8.530;2022-07-29T00:29:00;2.70;;;2.50;;
45650;SDS011;31365;48.858;8.530;2022-07-29T00:31:51;2.78;;;2.58;;
45650;SDS011;31365;48.858;8.530;2022-07-29T00:34:19;3.30;;;2.78;;
45650;SDS011;31365;48.858;8.530;2022-07-29T00:37:07;2.38;;;2.17;;
45650;SDS011;31365;48.858;8.530;2022-07-29T00:39:35;3.70;;;2.80;;
45650;SDS011;31365;48.858;8.530;2022-07-29T00:42:04;4.75;;;2.08;;
45650;SDS011;31365;48.858;8.530;2022-07-29T00:44:35;3.22;;;2.55;;
45650;SDS011;31365;48.858;8.530;2022-07-29T00:47:05;3.30;;;2.47;;
45650;SDS011;31365;48.858;8.530;2022-07-29T00:49:34;2.70;;;2.50;;
45650;SDS011;31365;48.858;8.530;2022-07-29T00:52:04;5.50;;;2.45;;
45650;SDS011;31365;48.858;8.530;2022-07-29T00:54:35;3.00;;;2.60;;
45650;SDS011;31365;48.858;8.530;2022-07-29T00:57:09;5.25;;;2.75;;
45650;SDS011;31365;48.858;8.530;2022-07-29T00:59:39;3.67;;;2.75;;
45650;SDS011;31365;48.858;8.530;2022-07-29T01:02:08;2.60;;;2.40;;
45650;SDS011;31365;48.858;8.530;2022-07-29T01:04:37;2.60;;;2.40;;
45650;SDS011;31365;48.858;8.530;2022-07-29T01:07:08;2.47;;;2.28;;
45650;SDS011;31365;48.858;8.530;2022-07-29T01:09:37;3.17;;;2.47;;
45650;SDS011;31365;48.858;8.530;2022-07-29T01:12:12;2.80;;;2.60;;
45650;SDS011;31365;48.858;8.530;2022-07-29T01:14:45;2.70;;;2.38;;
45650;SDS011;31365;48.858;8.530;2022-07-29T01:17:18;3.95;;;2.53;;
45650;SDS011;31365;48.858;8.530;2022-07-29T01:19:56;3.10;;;2.40;;
45650;SDS011;31365;48.858;8.530;2022-07-29T01:22:41;2.55;;;2.35;;
45650;SDS011;31365;48.858;8.530;2022-07-29T01:28:54;2.72;;;2.25;;
45650;SDS011;31365;48.858;8.530;2022-07-29T01:31:35;2.67;;;2.30;;
45650;SDS011;31365;48.858;8.530;2022-07-29T01:34:31;2.67;;;2.47;;
45650;SDS011;31365;48.858;8.530;2022-07-29T01:37:18;2.97;;;2.63;;
45650;SDS011;31365;48.858;8.530;2022-07-29T01:39:51;2.47;;;2.33;;
45650;SDS011;31365;48.858;8.530;2022-07-29T01:42:26;2.30;;;2.10;;
45650;SDS011;31365;48.858;8.530;2022-07-29T01:45:02;3.63;;;2.58;;
45650;SDS011;31365;48.858;8.530;2022-07-29T01:47:39;3.60;;;2.78;;
45650;SDS011;31365;48.858;8.530;2022-07-29T01:50:12;2.53;;;2.33;;
45650;SDS011;31365;48.858;8.530;2022-07-29T01:52:46;2.83;;;2.30;;
45650;SDS011;31365;48.858;8.530;2022-07-29T01:55:24;3.00;;;2.33;;
45650;SDS011;31365;48.858;8.530;2022-07-29T01:57:57;3.28;;;2.97;;
45650;SDS011;31365;48.858;8.530;2022-07-29T02:00:29;2.90;;;2.60;;
45650;SDS011;31365;48.858;8.530;2022-07-29T02:03:01;3.28;;;2.97;;
45650;SDS011;31365;48.858;8.530;2022-07-29T02:05:36;3.45;;;2.67;;
45650;SDS011;31365;48.858;8.530;2022-07-29T02:08:09;3.90;;;2.70;;
45650;SDS011;31365;48.858;8.530;2022-07-29T02:10:41;3.38;;;2.95;;
45650;SDS011;31365;48.858;8.530;2022-07-29T02:13:13;3.72;;;2.63;;
45650;SDS011;31365;48.858;8.530;2022-07-29T02:15:45;3.33;;;2.70;;
45650;SDS011;31365;48.858;8.530;2022-07-29T02:18:17;4.60;;;2.45;;
45650;SDS011;31365;48.858;8.530;2022-07-29T02:20:50;3.03;;;2.50;;
45650;SDS011;31365;48.858;8.530;2022-07-29T02:23:23;2.92;;;2.72;;
45650;SDS011;31365;48.858;8.530;2022-07-29T02:25:54;2.65;;;2.42;;
45650;SDS011;31365;48.858;8.530;2022-07-29T02:28:26;2.70;;;2.45;;
45650;SDS011;31365;48.858;8.530;2022-07-29T02:31:00;2.60;;;2.40;;
45650;SDS011;31365;48.858;8.530;2022-07-29T02:33:31;4.15;;;2.83;;
45650;SDS011;31365;48.858;8.530;2022-07-29T02:36:01;5.20;;;3.25;;
45650;SDS011;31365;48.858;8.530;2022-07-29T02:38:31;4.85;;;2.45;;
45650;SDS011;31365;48.858;8.530;2022-07-29T02:41:18;3.33;;;2.95;;
45650;SDS011;31365;48.858;8.530;2022-07-29T02:43:53;4.60;;;2.85;;
45650;SDS011;31365;48.858;8.530;2022-07-29T02:46:27;3.03;;;2.67;;
45650;SDS011;31365;48.858;8.530;2022-07-29T02:49:02;4.80;;;2.85;;
45650;SDS011;31365;48.858;8.530;2022-07-29T02:51:40;3.30;;;2.47;;
45650;SDS011;31365;48.858;8.530;2022-07-29T02:54:15;6.38;;;4.50;;
45650;SDS011;31365;48.858;8.530;2022-07-29T02:56:54;3.72;;;3.25;;
45650;SDS011;31365;48.858;8.530;2022-07-29T02:59:28;2.70;;;2.50;;
45650;SDS011;31365;48.858;8.530;2022-07-29T03:02:03;3.03;;;2.72;;
45650;SDS011;31365;48.858;8.530;2022-07-29T03:04:36;3.17;;;2.97;;
45650;SDS011;31365;48.858;8.530;2022-07-29T03:07:09;3.92;;;2.83;;
45650;SDS011;31365;48.858;8.530;2022-07-29T03:09:42;4.38;;;3.05;;
45650;SDS011;31365;48.858;8.530;2022-07-29T03:12:12;4.43;;;3.08;;
45650;SDS011;31365;48.858;8.530;2022-07-29T03:14:43;2.60;;;2.40;;
45650;SDS011;31365;48.858;8.530;2022-07-29T03:17:14;3.13;;;2.72;;
45650;SDS011;31365;48.858;8.530;2022-07-29T03:19:43;4.80;;;2.83;;
45650;SDS011;31365;48.858;8.530;2022-07-29T03:22:11;2.72;;;2.53;;
45650;SDS011;31365;48.858;8.530;2022-07-29T03:24:44;3.20;;;2.90;;
45650;SDS011;31365;48.858;8.530;2022-07-29T03:27:12;3.05;;;2.60;;
45650;SDS011;31365;48.858;8.530;2022-07-29T03:29:41;2.65;;;2.42;;
45650;SDS011;31365;48.858;8.530;2022-07-29T03:32:17;2.92;;;2.70;;
45650;SDS011;31365;48.858;8.530;2022-07-29T03:34:50;4.82;;;2.95;;
45650;SDS011;31365;48.858;8.530;2022-07-29T03:37:19;3.13;;;2.90;;
45650;SDS011;31365;48.858;8.530;2022-07-29T03:39:47;3.50;;;3.08;;
45650;SDS011;31365;48.858;8.530;2022-07-29T03:42:20;3.25;;;2.42;;
45650;SDS011;31365;48.858;8.530;2022-07-29T03:44:59;2.47;;;2.28;;
45650;SDS011;31365;48.858;8.530;2022-07-29T03:47:35;3.45;;;2.90;;
45650;SDS011;31365;48.858;8.530;2022-07-29T03:50:18;4.13;;;3.03;;
45650;SDS011;31365;48.858;8.530;2022-07-29T03:52:49;3.20;;;2.83;;
45650;SDS011;31365;48.858;8.530;2022-07-29T03:55:18;3.30;;;3.00;;
45650;SDS011;31365;48.858;8.530;2022-07-29T03:57:47;4.40;;;3.03;;
45650;SDS011;31365;48.858;8.530;2022-07-29T04:00:17;4.22;;;3.10;;
45650;SDS011;31365;48.858;8.530;2022-07-29T04:02:47;4.50;;;3.08;;
45650;SDS011;31365;48.858;8.530;2022-07-29T04:05:16;3.17;;;2.85;;
45650;SDS011;31365;48.858;8.530;2022-07-29T04:07:46;5.38;;;2.80;;
45650;SDS011;31365;48.858;8.530;2022-07-29T04:10:15;3.70;;;2.70;;
45650;SDS011;31365;48.858;8.530;2022-07-29T04:12:57;3.22;;;2.88;;
45650;SDS011;31365;48.858;8.530;2022-07-29T04:15:25;3.33;;;3.03;;
45650;SDS011;31365;48.858;8.530;2022-07-29T04:17:58;3.42;;;2.60;;
45650;SDS011;31365;48.858;8.530;2022-07-29T04:20:26;9.82;;;3.13;;
45650;SDS011;31365;48.858;8.530;2022-07-29T04:22:55;3.28;;;2.97;;
45650;SDS011;31365;48.858;8.530;2022-07-29T04:25:23;5.35;;;3.30;;
45650;SDS011;31365;48.858;8.530;2022-07-29T04:27:51;4.68;;;3.38;;
45650;SDS011;31365;48.858;8.530;2022-07-29T04:30:29;4.63;;;3.33;;
45650;SDS011;31365;48.858;8.530;2022-07-29T04:33:01;4.47;;;2.97;;
45650;SDS011;31365;48.858;8.530;2022-07-29T04:35:33;3.88;;;3.13;;
45650;SDS011;31365;48.858;8.530;2022-07-29T04:38:16;3.33;;;3.03;;
45650;SDS011;31365;48.858;8.530;2022-07-29T04:40:44;6.35;;;3.30;;
45650;SDS011;31365;48.858;8.530;2022-07-29T04:43:15;4.70;;;3.15;;
45650;SDS011;31365;48.858;8.530;2022-07-29T04:45:48;4.50;;;3.00;;
45650;SDS011;31365;48.858;8.530;2022-07-29T04:48:18;4.07;;;3.03;;
45650;SDS011;31365;48.858;8.530;2022-07-29T04:50:54;4.53;;;3.10;;
45650;SDS011;31365;48.858;8.530;2022-07-29T04:53:24;3.63;;;3.03;;
45650;SDS011;31365;48.858;8.530;2022-07-29T04:55:53;3.50;;;3.20;;
45650;SDS011;31365;48.858;8.530;2022-07-29T04:58:21;5.65;;;3.22;;
45650;SDS011;31365;48.858;8.530;2022-07-29T05:00:50;3.15;;;2.92;;
45650;SDS011;31365;48.858;8.530;2022-07-29T05:03:20;6.60;;;3.20;;
45650;SDS011;31365;48.858;8.530;2022-07-29T05:05:48;4.90;;;2.78;;
45650;SDS011;31365;48.858;8.530;2022-07-29T05:08:17;3.90;;;3.50;;
45650;SDS011;31365;48.858;8.530;2022-07-29T05:10:45;3.38;;;3.08;;
45650;SDS011;31365;48.858;8.530;2022-07-29T05:13:14;3.28;;;2.88;;
45650;SDS011;31365;48.858;8.530;2022-07-29T05:15:42;5.10;;;3.38;;
45650;SDS011;31365;48.858;8.530;2022-07-29T05:18:11;6.28;;;3.53;;
45650;SDS011;31365;48.858;8.530;2022-07-29T05:20:40;3.60;;;3.13;;
45650;SDS011;31365;48.858;8.530;2022-07-29T05:23:09;4.53;;;2.92;;
45650;SDS011;31365;48.858;8.530;2022-07-29T05:25:39;4.25;;;2.90;;
45650;SDS011;31365;48.858;8.530;2022-07-29T05:28:10;2.85;;;2.65;;
45650;SDS011;31365;48.858;8.530;2022-07-29T05:30:38;3.15;;;2.78;;
45650;SDS011;31365;48.858;8.530;2022-07-29T05:33:07;3.25;;;2.97;;
45650;SDS011;31365;48.858;8.530;2022-07-29T05:35:57;3.22;;;3.03;;
45650;SDS011;31365;48.858;8.530;2022-07-29T05:38:26;3.17;;;2.85;;
45650;SDS011;31365;48.858;8.530;2022-07-29T05:40:56;7.22;;;6.30;;
45650;SDS011;31365;48.858;8.530;2022-07-29T05:43:25;4.45;;;3.28;;
45650;SDS011;31365;48.858;8.530;2022-07-29T05:45:54;3.58;;;2.97;;
45650;SDS011;31365;48.858;8.530;2022-07-29T05:48:23;4.32;;;3.40;;
45650;SDS011;31365;48.858;8.530;2022-07-29T05:50:52;3.25;;;2.90;;
45650;SDS011;31365;48.858;8.530;2022-07-29T05:53:22;3.50;;;3.20;;
45650;SDS011;31365;48.858;8.530;2022-07-29T05:55:50;4.15;;;3.38;;
45650;SDS011;31365;48.858;8.530;2022-07-29T05:58:19;3.03;;;2.83;;
45650;SDS011;31365;48.858;8.530;2022-07-29T06:00:47;4.43;;;3.03;;
45650;SDS011;31365;48.858;8.530;2022-07-29T06:03:16;3.22;;;2.97;;
45650;SDS011;31365;48.858;8.530;2022-07-29T06:05:44;6.65;;;3.53;;
45650;SDS011;31365;48.858;8.530;2022-07-29T06:08:13;3.60;;;3.13;;
45650;SDS011;31365;48.858;8.530;2022-07-29T06:10:42;3.92;;;3.53;;
45650;SDS011;31365;48.858;8.530;2022-07-29T06:13:11;3.20;;;2.97;;
45650;SDS011;31365;48.858;8.530;2022-07-29T06:15:42;3.45;;;3.15;;
45650;SDS011;31365;48.858;8.530;2022-07-29T06:18:11;3.70;;;3.17;;
45650;SDS011;31365;48.858;8.530;2022-07-29T06:20:40;3.78;;;2.92;;
45650;SDS011;31365;48.858;8.530;2022-07-29T06:23:09;3.22;;;2.92;;
45650;SDS011;31365;48.858;8.530;2022-07-29T06:25:39;4.80;;;3.22;;
45650;SDS011;31365;48.858;8.530;2022-07-29T06:28:09;3.53;;;3.10;;
45650;SDS011;31365;48.858;8.530;2022-07-29T06:30:38;3.20;;;2.90;;
45650;SDS011;31365;48.858;8.530;2022-07-29T06:33:07;3.75;;;3.00;;
45650;SDS011;31365;48.858;8.530;2022-07-29T06:35:35;3.78;;;3.38;;
45650;SDS011;31365;48.858;8.530;2022-07-29T06:38:07;3.35;;;3.05;;
45650;SDS011;31365;48.858;8.530;2022-07-29T06:40:56;3.75;;;3.25;;
45650;SDS011;31365;48.858;8.530;2022-07-29T06:43:31;2.90;;;2.60;;
45650;SDS011;31365;48.858;8.530;2022-07-29T06:46:18;3.83;;;2.97;;
45650;SDS011;31365;48.858;8.530;2022-07-29T06:48:49;6.20;;;3.03;;
45650;SDS011;31365;48.858;8.530;2022-07-29T06:51:19;3.30;;;3.00;;
45650;SDS011;31365;48.858;8.530;2022-07-29T06:53:49;5.38;;;3.00;;
45650;SDS011;31365;48.858;8.530;2022-07-29T06:56:28;5.20;;;2.92;;
45650;SDS011;31365;48.858;8.530;2022-07-29T06:59:05;8.10;;;4.18;;
45650;SDS011;31365;48.858;8.530;2022-07-29T07:01:35;3.58;;;3.28;;
45650;SDS011;31365;48.858;8.530;2022-07-29T07:04:05;8.07;;;3.30;;
45650;SDS011;31365;48.858;8.530;2022-07-29T07:06:34;7.40;;;3.28;;
45650;SDS011;31365;48.858;8.530;2022-07-29T07:09:04;3.35;;;2.95;;
45650;SDS011;31365;48.858;8.530;2022-07-29T07:11:32;4.20;;;3.05;;
45650;SDS011;31365;48.858;8.530;2022-07-29T07:14:01;3.28;;;2.88;;
45650;SDS011;31365;48.858;8.530;2022-07-29T07:16:31;3.40;;;3.10;;
45650;SDS011;31365;48.858;8.530;2022-07-29T07:19:00;4.50;;;3.45;;
45650;SDS011;31365;48.858;8.530;2022-07-29T07:21:28;3.70;;;3.38;;
45650;SDS011;31365;48.858;8.530;2022-07-29T07:23:57;3.13;;;2.83;;
45650;SDS011;31365;48.858;8.530;2022-07-29T07:26:27;6.85;;;3.08;;
45650;SDS011;31365;48.858;8.530;2022-07-29T07:28:56;3.58;;;3.10;;
45650;SDS011;31365;48.858;8.530;2022-07-29T07:31:26;3.20;;;2.55;;
45650;SDS011;31365;48.858;8.530;2022-07-29T07:33:56;4.53;;;3.10;;
45650;SDS011;31365;48.858;8.530;2022-07-29T07:36:25;3.75;;;3.20;;
45650;SDS011;31365;48.858;8.530;2022-07-29T07:38:54;3.33;;;2.80;;
45650;SDS011;31365;48.858;8.530;2022-07-29T07:41:22;4.25;;;2.78;;
45650;SDS011;31365;48.858;8.530;2022-07-29T07:43:51;6.57;;;2.80;;
45650;SDS011;31365;48.858;8.530;2022-07-29T07:46:19;3.60;;;2.80;;
45650;SDS011;31365;48.858;8.530;2022-07-29T07:48:48;5.97;;;2.97;;
45650;SDS011;31365;48.858;8.530;2022-07-29T07:51:20;3.60;;;2.47;;
45650;SDS011;31365;48.858;8.530;2022-07-29T07:53:48;6.80;;;2.80;;
45650;SDS011;31365;48.858;8.530;2022-07-29T07:56:16;4.38;;;2.55;;
45650;SDS011;31365;48.858;8.530;2022-07-29T07:58:44;5.53;;;2.65;;
45650;SDS011;31365;48.858;8.530;2022-07-29T08:01:13;3.00;;;2.25;;
45650;SDS011;31365;48.858;8.530;2022-07-29T08:03:45;3.67;;;2.65;;
45650;SDS011;31365;48.858;8.530;2022-07-29T08:06:13;5.68;;;3.38;;
45650;SDS011;31365;48.858;8.530;2022-07-29T08:08:43;4.32;;;2.55;;
45650;SDS011;31365;48.858;8.530;2022-07-29T08:11:11;5.75;;;2.90;;
45650;SDS011;31365;48.858;8.530;2022-07-29T08:13:39;3.28;;;2.72;;
45650;SDS011;31365;48.858;8.530;2022-07-29T08:16:08;4.93;;;2.47;;
45650;SDS011;31365;48.858;8.530;2022-07-29T08:18:39;3.63;;;2.80;;
45650;SDS011;31365;48.858;8.530;2022-07-29T08:21:09;7.13;;;3.20;;
45650;SDS011;31365;48.858;8.530;2022-07-29T08:23:41;2.80;;;2.60;;
45650;SDS011;31365;48.858;8.530;2022-07-29T08:26:27;3.38;;;2.42;;
45650;SDS011;31365;48.858;8.530;2022-07-29T08:28:55;3.33;;;3.03;;
45650;SDS011;31365;48.858;8.530;2022-07-29T08:31:23;4.82;;;2.70;;
45650;SDS011;31365;48.858;8.530;2022-07-29T08:33:51;7.72;;;3.17;;
45650;SDS011;31365;48.858;8.530;2022-07-29T08:36:24;5.65;;;2.75;;
45650;SDS011;31365;48.858;8.530;2022-07-29T08:38:53;8.80;;;3.25;;
45650;SDS011;31365;48.858;8.530;2022-07-29T08:41:22;3.05;;;2.67;;
45650;SDS011;31365;48.858;8.530;2022-07-29T08:43:51;3.35;;;2.80;;
45650;SDS011;31365;48.858;8.530;2022-07-29T08:46:21;5.43;;;2.75;;
45650;SDS011;31365;48.858;8.530;2022-07-29T08:48:50;4.75;;;2.47;;
45650;SDS011;31365;48.858;8.530;2022-07-29T08:51:19;5.85;;;2.88;;
45650;SDS011;31365;48.858;8.530;2022-07-29T08:53:48;5.45;;;2.63;;
45650;SDS011;31365;48.858;8.530;2022-07-29T08:56:20;4.88;;;2.70;;
45650;SDS011;31365;48.858;8.530;2022-07-29T08:58:49;3.67;;;2.95;;
45650;SDS011;31365;48.858;8.530;2022-07-29T09:01:21;4.13;;;2.75;;
45650;SDS011;31365;48.858;8.530;2022-07-29T09:04:03;4.80;;;2.75;;
45650;SDS011;31365;48.858;8.530;2022-07-29T09:06:39;5.05;;;2.40;;
45650;SDS011;31365;48.858;8.530;2022-07-29T09:09:13;5.50;;;3.13;;
45650;SDS011;31365;48.858;8.530;2022-07-29T09:11:44;7.20;;;2.88;;
45650;SDS011;31365;48.858;8.530;2022-07-29T09:14:13;7.68;;;2.30;;
45650;SDS011;31365;48.858;8.530;2022-07-29T09:16:49;4.57;;;2.58;;
45650;SDS011;31365;48.858;8.530;2022-07-29T09:19:24;4.90;;;2.58;;
45650;SDS011;31365;48.858;8.530;2022-07-29T09:21:56;6.18;;;2.70;;
45650;SDS011;31365;48.858;8.530;2022-07-29T09:24:39;5.22;;;2.40;;
45650;SDS011;31365;48.858;8.530;2022-07-29T09:27:12;2.72;;;2.10;;
45650;SDS011;31365;48.858;8.530;2022-07-29T09:29:58;5.47;;;2.85;;
45650;SDS011;31365;48.858;8.530;2022-07-29T09:32:29;4.38;;;2.50;;
45650;SDS011;31365;48.858;8.530;2022-07-29T09:37:43;2.67;;;2.35;;
45650;SDS011;31365;48.858;8.530;2022-07-29T09:40:12;2.63;;;2.42;;
45650;SDS011;31365;48.858;8.530;2022-07-29T09:42:44;4.05;;;2.60;;
45650;SDS011;31365;48.858;8.530;2022-07-29T09:45:13;4.95;;;2.40;;
45650;SDS011;31365;48.858;8.530;2022-07-29T09:47:55;3.42;;;2.90;;
45650;SDS011;31365;48.858;8.530;2022-07-29T09:50:36;4.90;;;2.55;;
45650;SDS011;31365;48.858;8.530;2022-07-29T09:53:05;5.80;;;2.78;;
45650;SDS011;31365;48.858;8.530;2022-07-29T09:55:45;4.53;;;2.38;;
45650;SDS011;31365;48.858;8.530;2022-07-29T09:58:18;6.75;;;2.50;;
45650;SDS011;31365;48.858;8.530;2022-07-29T10:00:49;2.53;;;2.33;;
45650;SDS011;31365;48.858;8.530;2022-07-29T10:03:21;4.70;;;2.22;;
45650;SDS011;31365;48.858;8.530;2022-07-29T10:06:04;5.35;;;2.40;;
45650;SDS011;31365;48.858;8.530;2022-07-29T10:08:35;2.60;;;2.40;;
45650;SDS011;31365;48.858;8.530;2022-07-29T10:11:10;4.03;;;2.08;;
45650;SDS011;31365;48.858;8.530;2022-07-29T10:13:41;3.17;;;2.50;;
45650;SDS011;31365;48.858;8.530;2022-07-29T10:16:11;3.97;;;2.20;;
45650;SDS011;31365;48.858;8.530;2022-07-29T10:18:42;4.47;;;2.17;;
45650;SDS011;31365;48.858;8.530;2022-07-29T10:21:13;2.80;;;2.38;;
45650;SDS011;31365;48.858;8.530;2022-07-29T10:24:01;3.97;;;2.28;;
45650;SDS011;31365;48.858;8.530;2022-07-29T10:26:41;9.15;;;2.70;;
45650;SDS011;31365;48.858;8.530;2022-07-29T10:29:12;3.28;;;2.35;;
45650;SDS011;31365;48.858;8.530;2022-07-29T10:31:42;5.65;;;2.15;;
45650;SDS011;31365;48.858;8.530;2022-07-29T10:34:36;4.32;;;2.22;;
45650;SDS011;31365;48.858;8.530;2022-07-29T10:37:27;2.25;;;2.03;;
45650;SDS011;31365;48.858;8.530;2022-07-29T10:40:15;6.63;;;2.45;;
45650;SDS011;31365;48.858;8.530;2022-07-29T10:43:16;4.10;;;2.50;;
45650;SDS011;31365;48.858;8.530;2022-07-29T10:45:55;4.22;;;2.55;;
45650;SDS011;31365;48.858;8.530;2022-07-29T10:48:26;3.25;;;2.15;;
45650;SDS011;31365;48.858;8.530;2022-07-29T10:50:56;3.17;;;2.40;;
45650;SDS011;31365;48.858;8.530;2022-07-29T10:53:45;3.08;;;2.40;;
45650;SDS011;31365;48.858;8.530;2022-07-29T10:56:23;4.00;;;2.00;;
45650;SDS011;31365;48.858;8.530;2022-07-29T11:02:03;5.05;;;2.58;;
45650;SDS011;31365;48.858;8.530;2022-07-29T11:05:12;4.50;;;2.50;;
45650;SDS011;31365;48.858;8.530;2022-07-29T11:14:16;4.43;;;2.38;;
45650;SDS011;31365;48.858;8.530;2022-07-29T11:17:03;7.03;;;2.67;;
45650;SDS011;31365;48.858;8.530;2022-07-29T11:19:34;2.67;;;1.90;;
45650;SDS011;31365;48.858;8.530;2022-07-29T11:22:08;6.28;;;2.30;;
45650;SDS011;31365;48.858;8.530;2022-07-29T11:25:12;4.25;;;2.47;;
45650;SDS011;31365;48.858;8.530;2022-07-29T11:27:42;5.00;;;2.20;;
45650;SDS011;31365;48.858;8.530;2022-07-29T11:30:13;4.93;;;2.15;;
45650;SDS011;31365;48.858;8.530;2022-07-29T11:32:44;4.32;;;2.25;;
45650;SDS011;31365;48.858;8.530;2022-07-29T11:35:15;3.13;;;2.33;;
45650;SDS011;31365;48.858;8.530;2022-07-29T11:44:12;3.53;;;2.22;;
45650;SDS011;31365;48.858;8.530;2022-07-29T11:46:47;2.53;;;2.13;;
45650;SDS011;31365;48.858;8.530;2022-07-29T11:49:21;2.47;;;2.22;;
45650;SDS011;31365;48.858;8.530;2022-07-29T11:51:58;4.57;;;2.33;;
45650;SDS011;31365;48.858;8.530;2022-07-29T11:54:30;2.83;;;2.30;;
45650;SDS011;31365;48.858;8.530;2022-07-29T11:57:20;3.50;;;2.13;;
45650;SDS011;31365;48.858;8.530;2022-07-29T12:00:03;2.85;;;1.98;;
45650;SDS011;31365;48.858;8.530;2022-07-29T12:02:40;4.10;;;2.17;;
45650;SDS011;31365;48.858;8.530;2022-07-29T12:05:15;7.45;;;2.13;;
45650;SDS011;31365;48.858;8.530;2022-07-29T12:08:09;3.05;;;2.35;;
45650;SDS011;31365;48.858;8.530;2022-07-29T12:10:41;2.33;;;2.00;;
45650;SDS011;31365;48.858;8.530;2022-07-29T12:13:13;3.78;;;2.08;;
45650;SDS011;31365;48.858;8.530;2022-07-29T12:15:51;4.25;;;2.25;;
45650;SDS011;31365;48.858;8.530;2022-07-29T12:18:21;4.20;;;2.20;;
45650;SDS011;31365;48.858;8.530;2022-07-29T12:20:57;5.53;;;2.33;;
45650;SDS011;31365;48.858;8.530;2022-07-29T12:23:30;3.33;;;2.20;;
45650;SDS011;31365;48.858;8.530;2022-07-29T12:26:00;2.38;;;2.05;;
45650;SDS011;31365;48.858;8.530;2022-07-29T12:28:48;3.58;;;2.33;;
45650;SDS011;31365;48.858;8.530;2022-07-29T12:31:16;3.50;;;2.28;;
45650;SDS011;31365;48.858;8.530;2022-07-29T12:34:05;3.17;;;2.03;;
45650;SDS011;31365;48.858;8.530;2022-07-29T12:36:36;3.78;;;1.75;;
45650;SDS011;31365;48.858;8.530;2022-07-29T12:39:05;2.63;;;1.90;;
45650;SDS011;31365;48.858;8.530;2022-07-29T12:41:35;4.35;;;1.77;;
45650;SDS011;31365;48.858;8.530;2022-07-29T12:44:04;4.90;;;2.28;;
45650;SDS011;31365;48.858;8.530;2022-07-29T12:46:33;4.53;;;1.92;;
45650;SDS011;31365;48.858;8.530;2022-07-29T12:49:01;3.80;;;1.67;;
45650;SDS011;31365;48.858;8.530;2022-07-29T12:51:32;2.90;;;1.98;;
45650;SDS011;31365;48.858;8.530;2022-07-29T12:54:05;2.75;;;2.00;;
45650;SDS011;31365;48.858;8.530;2022-07-29T12:56:37;3.97;;;1.55;;
45650;SDS011;31365;48.858;8.530;2022-07-29T12:59:13;5.53;;;2.08;;
45650;SDS011;31365;48.858;8.530;2022-07-29T13:01:43;3.53;;;1.83;;
45650;SDS011;31365;48.858;8.530;2022-07-29T13:04:23;3.13;;;1.65;;
45650;SDS011;31365;48.858;8.530;2022-07-29T13:07:01;2.80;;;1.80;;
45650;SDS011;31365;48.858;8.530;2022-07-29T13:09:38;3.08;;;1.63;;
45650;SDS011;31365;48.858;8.530;2022-07-29T13:12:09;3.75;;;2.08;;
45650;SDS011;31365;48.858;8.530;2022-07-29T13:14:40;5.47;;;1.48;;
45650;SDS011;31365;48.858;8.530;2022-07-29T13:17:11;4.45;;;1.77;;
45650;SDS011;31365;48.858;8.530;2022-07-29T13:19:42;6.07;;;1.77;;
45650;SDS011;31365;48.858;8.530;2022-07-29T13:22:13;2.28;;;1.63;;
45650;SDS011;31365;48.858;8.530;2022-07-29T13:24:48;2.75;;;1.88;;
45650;SDS011;31365;48.858;8.530;2022-07-29T13:27:20;5.00;;;1.75;;
45650;SDS011;31365;48.858;8.530;2022-07-29T13:29:50;4.90;;;1.33;;
45650;SDS011;31365;48.858;8.530;2022-07-29T13:32:21;3.63;;;1.80;;
45650;SDS011;31365;48.858;8.530;2022-07-29T13:34:54;2.92;;;1.70;;
45650;SDS011;31365;48.858;8.530;2022-07-29T13:37:23;7.03;;;1.60;;
45650;SDS011;31365;48.858;8.530;2022-07-29T13:39:54;2.72;;;1.80;;
45650;SDS011;31365;48.858;8.530;2022-07-29T13:42:22;2.20;;;1.58;;
45650;SDS011;31365;48.858;8.530;2022-07-29T13:44:51;6.22;;;1.60;;
45650;SDS011;31365;48.858;8.530;2022-07-29T13:47:19;4.70;;;1.40;;
45650;SDS011;31365;48.858;8.530;2022-07-29T13:49:58;3.55;;;1.60;;
45650;SDS011;31365;48.858;8.530;2022-07-29T13:52:26;1.75;;;1.30;;
45650;SDS011;31365;48.858;8.530;2022-07-29T13:54:57;1.80;;;1.52;;
45650;SDS011;31365;48.858;8.530;2022-07-29T13:57:26;5.10;;;1.90;;
45650;SDS011;31365;48.858;8.530;2022-07-29T13:59:56;3.47;;;1.58;;
45650;SDS011;31365;48.858;8.530;2022-07-29T14:02:25;2.38;;;1.17;;
45650;SDS011;31365;48.858;8.530;2022-07-29T14:04:53;4.65;;;1.70;;
45650;SDS011;31365;48.858;8.530;2022-07-29T14:07:22;5.88;;;1.73;;
45650;SDS011;31365;48.858;8.530;2022-07-29T14:09:50;5.57;;;1.83;;
45650;SDS011;31365;48.858;8.530;2022-07-29T14:12:20;1.95;;;1.73;;
45650;SDS011;31365;48.858;8.530;2022-07-29T14:14:48;4.57;;;1.70;;
45650;SDS011;31365;48.858;8.530;2022-07-29T14:17:17;4.35;;;2.00;;
45650;SDS011;31365;48.858;8.530;2022-07-29T14:19:45;3.92;;;1.60;;
45650;SDS011;31365;48.858;8.530;2022-07-29T14:22:14;3.30;;;1.50;;
45650;SDS011;31365;48.858;8.530;2022-07-29T14:24:47;3.38;;;1.60;;
45650;SDS011;31365;48.858;8.530;2022-07-29T14:27:16;3.42;;;1.92;;
45650;SDS011;31365;48.858;8.530;2022-07-29T14:30:05;3.53;;;1.52;;
45650;SDS011;31365;48.858;8.530;2022-07-29T14:32:35;3.25;;;1.45;;
45650;SDS011;31365;48.858;8.530;2022-07-29T14:35:04;2.58;;;1.20;;
45650;SDS011;31365;48.858;8.530;2022-07-29T14:37:34;2.78;;;1.65;;
45650;SDS011;31365;48.858;8.530;2022-07-29T14:40:06;2.50;;;1.70;;
45650;SDS011;31365;48.858;8.530;2022-07-29T14:42:36;3.65;;;2.00;;
45650;SDS011;31365;48.858;8.530;2022-07-29T14:45:07;3.38;;;1.85;;
45650;SDS011;31365;48.858;8.530;2022-07-29T14:47:37;2.75;;;1.80;;
45650;SDS011;31365;48.858;8.530;2022-07-29T14:50:06;1.60;;;1.50;;
45650;SDS011;31365;48.858;8.530;2022-07-29T14:52:35;2.95;;;1.55;;
45650;SDS011;31365;48.858;8.530;2022-07-29T14:55:04;2.55;;;1.70;;
45650;SDS011;31365;48.858;8.530;2022-07-29T14:57:45;2.08;;;1.40;;
45650;SDS011;31365;48.858;8.530;2022-07-29T15:04:47;3.20;;;1.35;;
45650;SDS011;31365;48.858;8.530;2022-07-29T15:07:15;6.43;;;1.88;;
45650;SDS011;31365;48.858;8.530;2022-07-29T15:09:43;2.45;;;1.48;;
45650;SDS011;31365;48.858;8.530;2022-07-29T15:12:15;4.93;;;1.75;;
45650;SDS011;31365;48.858;8.530;2022-07-29T15:14:43;3.17;;;1.80;;
45650;SDS011;31365;48.858;8.530;2022-07-29T15:17:12;4.90;;;1.70;;
45650;SDS011;31365;48.858;8.530;2022-07-29T15:19:40;5.88;;;1.92;;
45650;SDS011;31365;48.858;8.530;2022-07-29T15:22:11;5.15;;;1.55;;
45650;SDS011;31365;48.858;8.530;2022-07-29T15:24:40;2.03;;;1.45;;
45650;SDS011;31365;48.858;8.530;2022-07-29T15:27:08;6.50;;;1.85;;
45650;SDS011;31365;48.858;8.530;2022-07-29T15:29:40;6.00;;;1.83;;
45650;SDS011;31365;48.858;8.530;2022-07-29T15:32:09;3.15;;;1.73;;
45650;SDS011;31365;48.858;8.530;2022-07-29T15:34:38;2.58;;;1.60;;
45650;SDS011;31365;48.858;8.530;2022-07-29T15:37:06;2.08;;;1.65;;
45650;SDS011;31365;48.858;8.530;2022-07-29T15:39:35;2.20;;;1.60;;
45650;SDS011;31365;48.858;8.530;2022-07-29T15:42:04;2.67;;;1.67;;
45650;SDS011;31365;48.858;8.530;2022-07-29T15:44:33;4.55;;;1.77;;
45650;SDS011;31365;48.858;8.530;2022-07-29T15:47:01;3.25;;;1.60;;